sensor_id;sensor_type;location;lat;lon;timestamp;pressure;altitude;pressure_sealevel;temperature;humidity
75290;BME280;63883;48.996;20.804;2023-10-19T00:00:14;96285.53;;;-1.77;100.00
75290;BME280;63883;48.996;20.804;2023-10-19T00:03:07;96269.75;;;-1.74;100.00
75290;BME280;63883;48.996;20.804;2023-10-19T00:05:33;96273.91;;;-1.72;100.00
75290;BME280;63883;48.996;20.804;2023-10-19T00:07:59;96285.53;;;-1.77;100.00
75290;BME280;63883;48.996;20.804;2023-10-19T00:10:29;96263.00;;;-1.78;100.00
75290;BME280;63883;48.996;20.804;2023-10-19T00:12:58;96266.34;;;-1.78;100.00
75290;BME280;63883;48.996;20.804;2023-10-19T00:15:35;96262.13;;;-1.82;100.00
75290;BME280;63883;48.996;20.804;2023-10-19T00:18:05;96257.09;;;-1.83;100.00
75290;BME280;63883;48.996;20.804;2023-10-19T00:20:47;96260.41;;;-1.84;100.00
75290;BME280;63883;48.996;20.804;2023-10-19T00:23:13;96257.03;;;-1.86;100.00
75290;BME280;63883;48.996;20.804;2023-10-19T00:25:40;96257.84;;;-1.89;100.00
75290;BME280;63883;48.996;20.804;2023-10-19T00:28:07;96250.34;;;-1.89;100.00
75290;BME280;63883;48.996;20.804;2023-10-19T00:30:34;96256.09;;;-1.93;100.00
75290;BME280;63883;48.996;20.804;2023-10-19T00:33:02;96256.06;;;-1.96;100.00
75290;BME280;63883;48.996;20.804;2023-10-19T00:35:41;96257.75;;;-1.93;100.00
75290;BME280;63883;48.996;20.804;2023-10-19T00:38:15;96250.25;;;-1.93;100.00
75290;BME280;63883;48.996;20.804;2023-10-19T00:41:09;96247.03;;;-1.88;100.00
75290;BME280;63883;48.996;20.804;2023-10-19T00:43:36;96239.56;;;-1.85;100.00
75290;BME280;63883;48.996;20.804;2023-10-19T00:46:03;96244.56;;;-1.85;100.00
75290;BME280;63883;48.996;20.804;2023-10-19T00:48:34;96232.22;;;-1.76;100.00
75290;BME280;63883;48.996;20.804;2023-10-19T00:51:01;96231.41;;;-1.75;100.00
75290;BME280;63883;48.996;20.804;2023-10-19T00:53:38;96222.25;;;-1.73;100.00
75290;BME280;63883;48.996;20.804;2023-10-19T00:56:07;96223.09;;;-1.74;100.00
75290;BME280;63883;48.996;20.804;2023-10-19T00:58:36;96215.50;;;-1.78;100.00
75290;BME280;63883;48.996;20.804;2023-10-19T01:01:05;96213.84;;;-1.81;100.00
75290;BME280;63883;48.996;20.804;2023-10-19T01:03:32;96199.69;;;-1.79;100.00
75290;BME280;63883;48.996;20.804;2023-10-19T01:06:04;96208.03;;;-1.77;100.00
75290;BME280;63883;48.996;20.804;2023-10-19T01:08:36;96202.16;;;-1.79;100.00
75290;BME280;63883;48.996;20.804;2023-10-19T01:11:09;96204.66;;;-1.82;100.00
75290;BME280;63883;48.996;20.804;2023-10-19T01:13:39;96201.22;;;-1.87;100.00
75290;BME280;63883;48.996;20.804;2023-10-19T01:16:17;96198.75;;;-1.85;100.00
75290;BME280;63883;48.996;20.804;2023-10-19T01:18:52;96198.00;;;-1.80;100.00
75290;BME280;63883;48.996;20.804;2023-10-19T01:21:21;96189.63;;;-1.83;100.00
75290;BME280;63883;48.996;20.804;2023-10-19T01:23:48;96176.41;;;-1.76;100.00
75290;BME280;63883;48.996;20.804;2023-10-19T01:26:14;96180.50;;;-1.81;100.00
75290;BME280;63883;48.996;20.804;2023-10-19T01:28:47;96170.44;;;-1.87;100.00
75290;BME280;63883;48.996;20.804;2023-10-19T01:33:47;96176.31;;;-1.82;100.00
75290;BME280;63883;48.996;20.804;2023-10-19T01:36:14;96172.25;;;-1.74;100.00
75290;BME280;63883;48.996;20.804;2023-10-19T01:38:41;96168.91;;;-1.76;100.00
75290;BME280;63883;48.996;20.804;2023-10-19T01:41:08;96153.13;;;-1.74;100.00
75290;BME280;63883;48.996;20.804;2023-10-19T01:43:48;96159.88;;;-1.65;100.00
75290;BME280;63883;48.996;20.804;2023-10-19T01:46:15;96155.00;;;-1.54;100.00
75290;BME280;63883;48.996;20.804;2023-10-19T01:48:48;96144.94;;;-1.61;100.00
75290;BME280;63883;48.996;20.804;2023-10-19T01:51:15;96144.06;;;-1.64;100.00
75290;BME280;63883;48.996;20.804;2023-10-19T01:53:42;96133.38;;;-1.51;100.00
75290;BME280;63883;48.996;20.804;2023-10-19T01:56:12;96125.97;;;-1.43;100.00
75290;BME280;63883;48.996;20.804;2023-10-19T01:58:41;96119.19;;;-1.53;100.00
75290;BME280;63883;48.996;20.804;2023-10-19T02:01:08;96124.09;;;-1.61;100.00
75290;BME280;63883;48.996;20.804;2023-10-19T02:03:35;96125.81;;;-1.59;100.00
75290;BME280;63883;48.996;20.804;2023-10-19T02:06:02;96121.75;;;-1.49;100.00
75290;BME280;63883;48.996;20.804;2023-10-19T02:08:45;96122.59;;;-1.47;100.00
75290;BME280;63883;48.996;20.804;2023-10-19T02:11:15;96126.69;;;-1.53;100.00
75290;BME280;63883;48.996;20.804;2023-10-19T02:13:48;96127.66;;;-1.41;100.00
75290;BME280;63883;48.996;20.804;2023-10-19T02:16:16;96121.88;;;-1.35;100.00
75290;BME280;63883;48.996;20.804;2023-10-19T02:18:43;96121.06;;;-1.36;100.00
75290;BME280;63883;48.996;20.804;2023-10-19T02:21:09;96113.44;;;-1.46;100.00
75290;BME280;63883;48.996;20.804;2023-10-19T02:23:39;96118.25;;;-1.62;100.00
75290;BME280;63883;48.996;20.804;2023-10-19T02:26:08;96112.38;;;-1.67;100.00
75290;BME280;63883;48.996;20.804;2023-10-19T02:28:34;96105.69;;;-1.68;100.00
75290;BME280;63883;48.996;20.804;2023-10-19T02:31:06;96100.84;;;-1.55;100.00
75290;BME280;63883;48.996;20.804;2023-10-19T02:33:42;96098.41;;;-1.49;100.00
75290;BME280;63883;48.996;20.804;2023-10-19T02:36:18;96089.22;;;-1.49;100.00
75290;BME280;63883;48.996;20.804;2023-10-19T02:38:46;96087.69;;;-1.36;100.00
75290;BME280;63883;48.996;20.804;2023-10-19T02:41:16;96086.97;;;-1.26;100.00
75290;BME280;63883;48.996;20.804;2023-10-19T02:43:43;96082.78;;;-1.29;100.00
75290;BME280;63883;48.996;20.804;2023-10-19T02:46:16;96085.31;;;-1.27;100.00
75290;BME280;63883;48.996;20.804;2023-10-19T02:48:45;96082.09;;;-1.17;100.00
75290;BME280;63883;48.996;20.804;2023-10-19T02:51:13;96081.31;;;-1.10;100.00
75290;BME280;63883;48.996;20.804;2023-10-19T02:53:42;96062.19;;;-1.03;100.00
75290;BME280;63883;48.996;20.804;2023-10-19T02:56:12;96066.31;;;-1.08;100.00
75290;BME280;63883;48.996;20.804;2023-10-19T02:58:42;96052.97;;;-1.09;100.00
75290;BME280;63883;48.996;20.804;2023-10-19T03:01:16;96057.22;;;-0.99;100.00
75290;BME280;63883;48.996;20.804;2023-10-19T03:03:50;96053.19;;;-0.83;100.00
75290;BME280;63883;48.996;20.804;2023-10-19T03:06:23;96049.16;;;-0.66;100.00
75290;BME280;63883;48.996;20.804;2023-10-19T03:08:49;96051.78;;;-0.51;100.00
75290;BME280;63883;48.996;20.804;2023-10-19T03:11:23;96046.84;;;-0.35;100.00
75290;BME280;63883;48.996;20.804;2023-10-19T03:13:49;96045.22;;;-0.30;100.00
75290;BME280;63883;48.996;20.804;2023-10-19T03:16:17;96045.19;;;-0.32;100.00
75290;BME280;63883;48.996;20.804;2023-10-19T03:18:44;96046.88;;;-0.32;100.00
75290;BME280;63883;48.996;20.804;2023-10-19T03:21:10;96028.53;;;-0.30;100.00
75290;BME280;63883;48.996;20.804;2023-10-19T03:23:36;96029.41;;;-0.14;100.00
75290;BME280;63883;48.996;20.804;2023-10-19T03:26:03;96021.97;;;0.01;100.00
75290;BME280;63883;48.996;20.804;2023-10-19T03:28:50;96017.81;;;-0.02;100.00
75290;BME280;63883;48.996;20.804;2023-10-19T03:31:23;96017.00;;;0.06;100.00
75290;BME280;63883;48.996;20.804;2023-10-19T03:33:53;96011.16;;;0.11;100.00
75290;BME280;63883;48.996;20.804;2023-10-19T03:36:25;96010.28;;;0.08;100.00
75290;BME280;63883;48.996;20.804;2023-10-19T03:38:52;96006.97;;;0.06;100.00
75290;BME280;63883;48.996;20.804;2023-10-19T03:41:20;96016.13;;;0.04;100.00
75290;BME280;63883;48.996;20.804;2023-10-19T03:43:53;96009.44;;;0.01;100.00
75290;BME280;63883;48.996;20.804;2023-10-19T03:46:20;96004.41;;;-0.05;100.00
75290;BME280;63883;48.996;20.804;2023-10-19T03:49:01;96001.03;;;-0.15;100.00
75290;BME280;63883;48.996;20.804;2023-10-19T03:51:39;95992.66;;;-0.20;100.00
75290;BME280;63883;48.996;20.804;2023-10-19T03:54:08;95992.59;;;-0.32;100.00
75290;BME280;63883;48.996;20.804;2023-10-19T03:56:51;95987.56;;;-0.35;100.00
75290;BME280;63883;48.996;20.804;2023-10-19T03:59:17;95985.09;;;-0.26;100.00
75290;BME280;63883;48.996;20.804;2023-10-19T04:01:44;95981.00;;;-0.06;100.00
75290;BME280;63883;48.996;20.804;2023-10-19T04:04:10;95965.16;;;-0.08;100.00
75290;BME280;63883;48.996;20.804;2023-10-19T04:06:36;95974.34;;;-0.02;100.00
75290;BME280;63883;48.996;20.804;2023-10-19T04:09:03;95963.53;;;0.05;100.00
75290;BME280;63883;48.996;20.804;2023-10-19T04:11:32;95968.53;;;0.07;100.00
75290;BME280;63883;48.996;20.804;2023-10-19T04:14:10;95966.06;;;0.13;100.00
75290;BME280;63883;48.996;20.804;2023-10-19T04:16:36;95963.56;;;0.19;100.00
75290;BME280;63883;48.996;20.804;2023-10-19T04:19:02;95951.00;;;0.16;100.00
75290;BME280;63883;48.996;20.804;2023-10-19T04:21:30;95947.69;;;0.27;100.00
75290;BME280;63883;48.996;20.804;2023-10-19T04:23:55;95924.28;;;0.24;100.00
75290;BME280;63883;48.996;20.804;2023-10-19T04:26:22;95925.16;;;0.35;100.00
75290;BME280;63883;48.996;20.804;2023-10-19T04:28:50;95929.31;;;0.34;100.00
75290;BME280;63883;48.996;20.804;2023-10-19T04:31:16;95923.44;;;0.19;100.00
75290;BME280;63883;48.996;20.804;2023-10-19T04:33:44;95910.91;;;0.26;100.00
75290;BME280;63883;48.996;20.804;2023-10-19T04:36:12;95908.41;;;0.25;100.00
75290;BME280;63883;48.996;20.804;2023-10-19T04:38:39;95903.41;;;0.40;100.00
75290;BME280;63883;48.996;20.804;2023-10-19T04:41:09;95904.28;;;0.57;100.00
75290;BME280;63883;48.996;20.804;2023-10-19T04:43:39;95898.41;;;0.72;100.00
75290;BME280;63883;48.996;20.804;2023-10-19T04:46:09;95896.75;;;0.65;100.00
75290;BME280;63883;48.996;20.804;2023-10-19T04:48:42;95886.69;;;0.75;100.00
75290;BME280;63883;48.996;20.804;2023-10-19T04:51:08;95880.81;;;0.90;100.00
75290;BME280;63883;48.996;20.804;2023-10-19T04:53:35;95882.50;;;0.90;100.00
75290;BME280;63883;48.996;20.804;2023-10-19T04:56:02;95877.50;;;0.79;100.00
75290;BME280;63883;48.996;20.804;2023-10-19T04:58:29;95887.53;;;0.68;100.00
75290;BME280;63883;48.996;20.804;2023-10-19T05:00:55;95881.69;;;0.65;100.00
75290;BME280;63883;48.996;20.804;2023-10-19T05:03:24;95879.16;;;0.72;100.00
75290;BME280;63883;48.996;20.804;2023-10-19T05:05:50;95880.00;;;0.82;100.00
75290;BME280;63883;48.996;20.804;2023-10-19T05:08:15;95889.19;;;0.88;100.00
75290;BME280;63883;48.996;20.804;2023-10-19T05:10:41;95888.34;;;0.89;100.00
75290;BME280;63883;48.996;20.804;2023-10-19T05:13:07;95895.03;;;0.90;100.00
75290;BME280;63883;48.996;20.804;2023-10-19T05:15:33;95891.69;;;0.94;100.00
75290;BME280;63883;48.996;20.804;2023-10-19T05:18:02;95889.97;;;1.11;100.00
75290;BME280;63883;48.996;20.804;2023-10-19T05:20:28;95894.16;;;1.18;100.00
75290;BME280;63883;48.996;20.804;2023-10-19T05:22:53;95892.47;;;1.18;100.00
75290;BME280;63883;48.996;20.804;2023-10-19T05:25:19;95885.81;;;1.11;100.00
75290;BME280;63883;48.996;20.804;2023-10-19T05:27:44;95900.03;;;1.14;100.00
75290;BME280;63883;48.996;20.804;2023-10-19T05:30:11;95895.00;;;1.22;100.00
75290;BME280;63883;48.996;20.804;2023-10-19T05:32:37;95899.97;;;1.31;100.00
75290;BME280;63883;48.996;20.804;2023-10-19T05:35:03;95904.09;;;1.51;100.00
75290;BME280;63883;48.996;20.804;2023-10-19T05:37:33;95899.06;;;1.54;100.00
75290;BME280;63883;48.996;20.804;2023-10-19T05:39:59;95899.94;;;1.47;100.00
75290;BME280;63883;48.996;20.804;2023-10-19T05:42:25;95900.78;;;1.37;100.00
75290;BME280;63883;48.996;20.804;2023-10-19T05:44:51;95894.13;;;1.32;100.00
75290;BME280;63883;48.996;20.804;2023-10-19T05:47:17;95896.63;;;1.33;100.00
75290;BME280;63883;48.996;20.804;2023-10-19T05:49:43;95886.56;;;1.38;100.00
75290;BME280;63883;48.996;20.804;2023-10-19T05:52:08;95879.84;;;1.44;100.00
75290;BME280;63883;48.996;20.804;2023-10-19T05:54:35;95885.69;;;1.52;100.00
75290;BME280;63883;48.996;20.804;2023-10-19T05:57:01;95887.34;;;1.53;100.00
75290;BME280;63883;48.996;20.804;2023-10-19T05:59:27;95874.03;;;1.32;100.00
75290;BME280;63883;48.996;20.804;2023-10-19T06:01:54;95870.63;;;1.46;100.00
75290;BME280;63883;48.996;20.804;2023-10-19T06:04:20;95861.41;;;1.50;100.00
75290;BME280;63883;48.996;20.804;2023-10-19T06:06:46;95863.03;;;1.60;100.00
75290;BME280;63883;48.996;20.804;2023-10-19T06:09:13;95851.31;;;1.59;100.00
75290;BME280;63883;48.996;20.804;2023-10-19T06:11:40;95858.03;;;1.57;100.00
75290;BME280;63883;48.996;20.804;2023-10-19T06:14:08;95860.53;;;1.65;100.00
75290;BME280;63883;48.996;20.804;2023-10-19T06:16:35;95840.38;;;1.71;100.00
75290;BME280;63883;48.996;20.804;2023-10-19T06:19:01;95842.06;;;1.70;100.00
75290;BME280;63883;48.996;20.804;2023-10-19T06:21:26;95843.66;;;1.82;100.00
75290;BME280;63883;48.996;20.804;2023-10-19T06:23:52;95842.81;;;1.81;100.00
75290;BME280;63883;48.996;20.804;2023-10-19T06:26:20;95841.06;;;1.95;100.00
75290;BME280;63883;48.996;20.804;2023-10-19T06:28:45;95842.59;;;2.21;100.00
75290;BME280;63883;48.996;20.804;2023-10-19T06:31:11;95841.66;;;2.32;100.00
75290;BME280;63883;48.996;20.804;2023-10-19T06:33:37;95843.44;;;2.20;100.00
75290;BME280;63883;48.996;20.804;2023-10-19T06:36:07;95844.22;;;2.26;100.00
75290;BME280;63883;48.996;20.804;2023-10-19T06:38:32;95836.69;;;2.26;100.00
75290;BME280;63883;48.996;20.804;2023-10-19T06:41:02;95836.56;;;2.43;100.00
75290;BME280;63883;48.996;20.804;2023-10-19T06:43:37;95839.00;;;2.51;100.00
75290;BME280;63883;48.996;20.804;2023-10-19T06:46:03;95838.97;;;2.54;100.00
75290;BME280;63883;48.996;20.804;2023-10-19T06:48:29;95839.72;;;2.65;100.00
75290;BME280;63883;48.996;20.804;2023-10-19T06:50:56;95842.38;;;2.51;100.00
75290;BME280;63883;48.996;20.804;2023-10-19T06:53:22;95841.41;;;2.64;100.00
75290;BME280;63883;48.996;20.804;2023-10-19T06:55:47;95842.13;;;2.77;100.00
75290;BME280;63883;48.996;20.804;2023-10-19T06:58:13;95838.00;;;2.71;100.00
75290;BME280;63883;48.996;20.804;2023-10-19T07:00:40;95831.94;;;2.89;100.00
75290;BME280;63883;48.996;20.804;2023-10-19T07:03:10;95825.19;;;2.93;100.00
75290;BME280;63883;48.996;20.804;2023-10-19T07:05:37;95821.69;;;3.09;100.00
75290;BME280;63883;48.996;20.804;2023-10-19T07:08:04;95819.16;;;3.07;100.00
75290;BME280;63883;48.996;20.804;2023-10-19T07:10:32;95821.97;;;2.80;100.00
75290;BME280;63883;48.996;20.804;2023-10-19T07:13:00;95815.88;;;3.02;100.00
75290;BME280;63883;48.996;20.804;2023-10-19T07:15:25;95809.09;;;3.09;100.00
75290;BME280;63883;48.996;20.804;2023-10-19T07:17:52;95802.41;;;3.03;100.00
75290;BME280;63883;48.996;20.804;2023-10-19T07:20:19;95800.81;;;2.96;100.00
75290;BME280;63883;48.996;20.804;2023-10-19T07:23:02;95803.31;;;2.98;100.00
75290;BME280;63883;48.996;20.804;2023-10-19T07:25:53;95802.53;;;2.91;100.00
75290;BME280;63883;48.996;20.804;2023-10-19T07:28:25;95807.59;;;2.88;100.00
75290;BME280;63883;48.996;20.804;2023-10-19T07:30:55;95809.34;;;2.83;100.00
75290;BME280;63883;48.996;20.804;2023-10-19T07:33:21;95813.72;;;2.66;100.00
75290;BME280;63883;48.996;20.804;2023-10-19T07:35:48;95815.34;;;2.71;100.00
75290;BME280;63883;48.996;20.804;2023-10-19T07:38:18;95801.84;;;2.75;100.00
75290;BME280;63883;48.996;20.804;2023-10-19T07:40:47;95807.66;;;2.82;100.00
75290;BME280;63883;48.996;20.804;2023-10-19T07:43:13;95799.19;;;2.92;100.00
75290;BME280;63883;48.996;20.804;2023-10-19T07:45:38;95780.78;;;2.87;100.00
75290;BME280;63883;48.996;20.804;2023-10-19T07:48:05;95790.72;;;2.99;100.00
75290;BME280;63883;48.996;20.804;2023-10-19T07:50:37;95783.06;;;3.08;100.00
75290;BME280;63883;48.996;20.804;2023-10-19T07:53:03;95785.69;;;2.99;100.00
75290;BME280;63883;48.996;20.804;2023-10-19T07:55:29;95778.09;;;3.02;100.00
75290;BME280;63883;48.996;20.804;2023-10-19T07:57:57;95771.41;;;2.98;100.00
75290;BME280;63883;48.996;20.804;2023-10-19T08:00:27;95762.78;;;3.18;100.00
75290;BME280;63883;48.996;20.804;2023-10-19T08:02:57;95767.81;;;3.19;100.00
75290;BME280;63883;48.996;20.804;2023-10-19T08:05:23;95772.81;;;3.22;100.00
75290;BME280;63883;48.996;20.804;2023-10-19T08:07:49;95770.31;;;3.21;100.00
75290;BME280;63883;48.996;20.804;2023-10-19T08:10:16;95770.91;;;3.39;100.00
75290;BME280;63883;48.996;20.804;2023-10-19T08:12:44;95764.00;;;3.55;100.00
75290;BME280;63883;48.996;20.804;2023-10-19T08:15:13;95774.94;;;3.54;100.00
75290;BME280;63883;48.996;20.804;2023-10-19T08:17:41;95772.31;;;3.62;100.00
75290;BME280;63883;48.996;20.804;2023-10-19T08:20:08;95768.81;;;3.73;100.00
75290;BME280;63883;48.996;20.804;2023-10-19T08:22:51;95755.03;;;3.94;100.00
75290;BME280;63883;48.996;20.804;2023-10-19T08:25:16;95757.44;;;4.02;100.00
75290;BME280;63883;48.996;20.804;2023-10-19T08:27:43;95756.72;;;3.95;100.00
75290;BME280;63883;48.996;20.804;2023-10-19T08:30:19;95747.50;;;3.92;100.00
75290;BME280;63883;48.996;20.804;2023-10-19T08:32:46;95746.44;;;4.07;100.00
75290;BME280;63883;48.996;20.804;2023-10-19T08:35:17;95759.69;;;4.20;100.00
75290;BME280;63883;48.996;20.804;2023-10-19T08:37:53;95748.09;;;4.08;100.00
75290;BME280;63883;48.996;20.804;2023-10-19T08:40:20;95743.81;;;4.12;100.00
75290;BME280;63883;48.996;20.804;2023-10-19T08:42:47;95745.56;;;4.10;100.00
75290;BME280;63883;48.996;20.804;2023-10-19T08:45:14;95727.91;;;4.08;100.00
75290;BME280;63883;48.996;20.804;2023-10-19T08:47:44;95743.94;;;4.04;100.00
75290;BME280;63883;48.996;20.804;2023-10-19T08:50:13;95739.72;;;4.05;100.00
75290;BME280;63883;48.996;20.804;2023-10-19T08:52:41;95732.25;;;3.99;100.00
75290;BME280;63883;48.996;20.804;2023-10-19T08:55:08;95733.84;;;4.06;100.00
75290;BME280;63883;48.996;20.804;2023-10-19T08:57:36;95735.47;;;4.10;100.00
75290;BME280;63883;48.996;20.804;2023-10-19T09:00:02;95731.16;;;4.16;100.00
75290;BME280;63883;48.996;20.804;2023-10-19T09:02:31;95725.19;;;4.19;100.00
75290;BME280;63883;48.996;20.804;2023-10-19T09:04:58;95709.03;;;4.32;100.00
75290;BME280;63883;48.996;20.804;2023-10-19T09:07:26;95716.38;;;4.44;100.00
75290;BME280;63883;48.996;20.804;2023-10-19T09:09:56;95710.19;;;4.60;100.00
75290;BME280;63883;48.996;20.804;2023-10-19T09:12:23;95715.91;;;4.68;100.00
75290;BME280;63883;48.996;20.804;2023-10-19T09:14:48;95710.78;;;4.75;100.00
75290;BME280;63883;48.996;20.804;2023-10-19T09:17:15;95714.66;;;4.91;100.00
75290;BME280;63883;48.996;20.804;2023-10-19T09:19:44;95717.75;;;5.05;100.00
75290;BME280;63883;48.996;20.804;2023-10-19T09:22:13;95710.84;;;5.13;100.00
75290;BME280;63883;48.996;20.804;2023-10-19T09:24:54;95710.06;;;5.11;100.00
75290;BME280;63883;48.996;20.804;2023-10-19T09:27:21;95695.59;;;5.18;100.00
75290;BME280;63883;48.996;20.804;2023-10-19T09:29:48;95681.16;;;5.23;100.00
75290;BME280;63883;48.996;20.804;2023-10-19T09:32:16;95672.56;;;5.31;100.00
75290;BME280;63883;48.996;20.804;2023-10-19T09:34:44;95684.91;;;5.45;100.00
75290;BME280;63883;48.996;20.804;2023-10-19T09:37:10;95684.53;;;5.62;100.00
75290;BME280;63883;48.996;20.804;2023-10-19T09:39:37;95686.09;;;5.67;100.00
75290;BME280;63883;48.996;20.804;2023-10-19T09:42:07;95682.56;;;5.73;100.00
75290;BME280;63883;48.996;20.804;2023-10-19T09:44:55;95678.59;;;5.63;100.00
75290;BME280;63883;48.996;20.804;2023-10-19T09:47:34;95679.19;;;5.74;100.00
75290;BME280;63883;48.996;20.804;2023-10-19T09:50:03;95677.22;;;5.85;100.00
75290;BME280;63883;48.996;20.804;2023-10-19T09:52:32;95658.63;;;5.89;100.00
75290;BME280;63883;48.996;20.804;2023-10-19T09:55:22;95665.22;;;5.95;100.00
75290;BME280;63883;48.996;20.804;2023-10-19T09:57:55;95670.44;;;5.87;100.00
75290;BME280;63883;48.996;20.804;2023-10-19T10:00:21;95670.34;;;5.92;100.00
75290;BME280;63883;48.996;20.804;2023-10-19T10:02:51;95667.16;;;5.83;100.00
75290;BME280;63883;48.996;20.804;2023-10-19T10:10:46;95650.53;;;5.73;100.00
75290;BME280;63883;48.996;20.804;2023-10-19T10:15:50;95633.41;;;5.47;100.00
75290;BME280;63883;48.996;20.804;2023-10-19T10:18:17;95640.59;;;5.29;100.00
75290;BME280;63883;48.996;20.804;2023-10-19T10:20:43;95635.41;;;5.33;100.00
75290;BME280;63883;48.996;20.804;2023-10-19T10:26:09;95627.94;;;5.66;100.00
75290;BME280;63883;48.996;20.804;2023-10-19T10:28:35;95622.56;;;5.78;100.00
75290;BME280;63883;48.996;20.804;2023-10-19T10:31:20;95609.00;;;5.82;100.00
75290;BME280;63883;48.996;20.804;2023-10-19T10:33:51;95606.50;;;5.80;100.00
75290;BME280;63883;48.996;20.804;2023-10-19T10:36:18;95596.00;;;5.97;100.00
75290;BME280;63883;48.996;20.804;2023-10-19T10:38:51;95590.13;;;5.95;100.00
75290;BME280;63883;48.996;20.804;2023-10-19T10:41:23;95586.28;;;5.79;100.00
75290;BME280;63883;48.996;20.804;2023-10-19T10:43:55;95587.28;;;6.07;100.00
75290;BME280;63883;48.996;20.804;2023-10-19T10:46:22;95578.19;;;6.00;100.00
75290;BME280;63883;48.996;20.804;2023-10-19T10:48:49;95578.09;;;6.05;100.00
75290;BME280;63883;48.996;20.804;2023-10-19T10:51:18;95581.31;;;6.10;100.00
75290;BME280;63883;48.996;20.804;2023-10-19T10:53:51;95565.47;;;6.03;100.00
75290;BME280;63883;48.996;20.804;2023-10-19T10:56:18;95564.44;;;6.10;100.00
75290;BME280;63883;48.996;20.804;2023-10-19T10:58:45;95556.25;;;6.32;100.00
75290;BME280;63883;48.996;20.804;2023-10-19T11:01:10;95558.44;;;6.44;100.00
75290;BME280;63883;48.996;20.804;2023-10-19T11:03:37;95557.22;;;6.57;100.00
75290;BME280;63883;48.996;20.804;2023-10-19T11:06:06;95555.06;;;6.74;100.00
75290;BME280;63883;48.996;20.804;2023-10-19T11:08:36;95554.00;;;6.81;100.00
75290;BME280;63883;48.996;20.804;2023-10-19T11:11:04;95552.41;;;6.77;100.00
75290;BME280;63883;48.996;20.804;2023-10-19T11:13:30;95547.19;;;6.83;100.00
75290;BME280;63883;48.996;20.804;2023-10-19T11:15:59;95550.16;;;6.97;100.00
75290;BME280;63883;48.996;20.804;2023-10-19T11:20:56;95536.50;;;7.01;100.00
75290;BME280;63883;48.996;20.804;2023-10-19T11:23:48;95532.81;;;7.12;100.00
75290;BME280;63883;48.996;20.804;2023-10-19T11:26:22;95535.00;;;7.22;100.00
75290;BME280;63883;48.996;20.804;2023-10-19T11:29:02;95529.91;;;7.24;100.00
75290;BME280;63883;48.996;20.804;2023-10-19T11:31:35;95520.19;;;7.36;100.00
75290;BME280;63883;48.996;20.804;2023-10-19T11:34:03;95506.97;;;7.53;100.00
75290;BME280;63883;48.996;20.804;2023-10-19T11:36:29;95501.25;;;7.71;100.00
75290;BME280;63883;48.996;20.804;2023-10-19T11:38:55;95511.91;;;7.82;100.00
75290;BME280;63883;48.996;20.804;2023-10-19T11:41:21;95500.50;;;7.94;100.00
75290;BME280;63883;48.996;20.804;2023-10-19T11:43:49;95500.97;;;8.05;100.00
75290;BME280;63883;48.996;20.804;2023-10-19T11:46:16;95497.19;;;8.15;100.00
75290;BME280;63883;48.996;20.804;2023-10-19T11:48:48;95500.13;;;8.05;100.00
75290;BME280;63883;48.996;20.804;2023-10-19T11:51:14;95504.81;;;7.92;100.00
75290;BME280;63883;48.996;20.804;2023-10-19T11:53:41;95495.31;;;7.97;100.00
75290;BME280;63883;48.996;20.804;2023-10-19T11:56:09;95490.06;;;8.02;100.00
75290;BME280;63883;48.996;20.804;2023-10-19T11:58:36;95487.75;;;7.96;100.00
75290;BME280;63883;48.996;20.804;2023-10-19T12:01:06;95468.97;;;8.00;100.00
75290;BME280;63883;48.996;20.804;2023-10-19T12:03:34;95457.94;;;8.01;100.00
75290;BME280;63883;48.996;20.804;2023-10-19T12:06:05;95460.47;;;8.01;100.00
75290;BME280;63883;48.996;20.804;2023-10-19T12:08:34;95449.66;;;7.96;100.00
75290;BME280;63883;48.996;20.804;2023-10-19T12:11:01;95455.19;;;8.07;100.00
75290;BME280;63883;48.996;20.804;2023-10-19T12:13:30;95454.03;;;7.92;100.00
75290;BME280;63883;48.996;20.804;2023-10-19T12:15:58;95452.13;;;7.99;100.00
75290;BME280;63883;48.996;20.804;2023-10-19T12:18:25;95443.41;;;7.81;100.00
75290;BME280;63883;48.996;20.804;2023-10-19T12:20:54;95441.97;;;7.99;100.00
75290;BME280;63883;48.996;20.804;2023-10-19T12:23:25;95447.47;;;8.10;100.00
75290;BME280;63883;48.996;20.804;2023-10-19T12:25:51;95438.91;;;8.12;100.00
75290;BME280;63883;48.996;20.804;2023-10-19T12:28:18;95456.34;;;8.21;100.00
75290;BME280;63883;48.996;20.804;2023-10-19T12:30:44;95445.47;;;8.18;100.00
75290;BME280;63883;48.996;20.804;2023-10-19T12:33:10;95439.75;;;8.13;100.00
75290;BME280;63883;48.996;20.804;2023-10-19T12:35:42;95444.59;;;8.19;100.00
75290;BME280;63883;48.996;20.804;2023-10-19T12:38:19;95434.25;;;8.23;100.00
75290;BME280;63883;48.996;20.804;2023-10-19T12:40:49;95435.00;;;8.27;100.00
75290;BME280;63883;48.996;20.804;2023-10-19T12:43:16;95426.50;;;8.28;100.00
75290;BME280;63883;48.996;20.804;2023-10-19T12:45:47;95423.63;;;8.37;100.00
75290;BME280;63883;48.996;20.804;2023-10-19T12:48:16;95421.69;;;8.44;100.00
75290;BME280;63883;48.996;20.804;2023-10-19T12:50:42;95425.28;;;8.38;100.00
75290;BME280;63883;48.996;20.804;2023-10-19T12:53:09;95413.41;;;8.39;100.00
75290;BME280;63883;48.996;20.804;2023-10-19T12:55:35;95407.56;;;8.37;100.00
75290;BME280;63883;48.996;20.804;2023-10-19T12:58:04;95410.41;;;8.51;100.00
75290;BME280;63883;48.996;20.804;2023-10-19T13:00:35;95404.13;;;8.59;100.00
75290;BME280;63883;48.996;20.804;2023-10-19T13:03:07;95408.38;;;8.59;100.00
75290;BME280;63883;48.996;20.804;2023-10-19T13:05:36;95412.66;;;8.58;100.00
75290;BME280;63883;48.996;20.804;2023-10-19T13:08:05;95408.69;;;8.51;100.00
75290;BME280;63883;48.996;20.804;2023-10-19T13:10:31;95402.13;;;8.46;100.00
75290;BME280;63883;48.996;20.804;2023-10-19T13:13:05;95395.44;;;8.43;100.00